Tiempo atmosférico en la estación meteorológica de Huelva, Ronda Este, Huelva (19 m.)



Fecha
DESCASC
Temp. máxima en grados centígrados (hora)
DESCASC
Temp. mínima en grados centígrados (hora)
DESCASC
Temp. media en grados centígrados
DESCASC
Racha de viento máxima en m/sg (hora)
DESCASC
Velocidad máxima media en intervalos de 10 minutos(hora)
DESCASC
Precipitaciones diarias en mm
DESCASC
Precipitaciones de 00:00 a 06:00 en mm
DESCASC
Precipitaciones de 06:00 a 12:00 en mm
DESCASC
Precipitaciones de 12:00 a 18:00 en mm
DESCASC
Precipitaciones de 18:00 a 24:00 en mm
DESCASC
18-04-2019 19.1 (12:50) 12 (04:10) 15.6 10.56 (12:50) 6.94 (15:00) 2.4 2 0.2 0.2 0
17-04-2019 20.9 (14:00) 10.8 (06:20) 15.8 15.28 (14:30) 10.56 (14:10) 0.4 0 0 0.4 0
16-04-2019 23.4 (15:20) 8.8 (00:00) 16.1 7.5 (16:20) 5 (17:10) 0 0 0 0 0
15-04-2019 24.8 (15:00) 11.7 (00:00) 18.2 12.22 (16:40) 8.61 (16:20) 0 0 0 0 0
14-04-2019 26.7 (16:00) 11.9 (00:00) 19.3 6.67 (16:30) 4.72 (16:50) 0 0 0 0 0
13-04-2019 23.7 (15:30) 10.2 (00:00) 17 10.28 (19:40) 7.22 (19:40) 0 0 0 0 0
12-04-2019 23.5 (15:00) 9.7 (00:00) 16.6 9.72 (19:00) 6.94 (19:00) 0 0 0 0 0
11-04-2019 22.9 (17:40) 8.4 (00:00) 15.6 10.56 (19:30) 5 (19:30) 0 0 0 0 0
10-04-2019 21.7 (18:00) 7.6 (00:00) 14.7 15.83 (18:10) 7.5 (15:50) 0 0 0 0 0
09-04-2019 19.3 (19:00) 8.8 (00:00) 14 10.83 (17:00) 7.22 (16:10) 0 0 0 0 0
08-04-2019 18.6 (13:30) 11.7 (00:00) 15.2 12.78 (19:00) 8.33 (17:50) 5.8 0 5.8 0 0
07-04-2019 17.4 (19:10) 9.9 (00:00) 13.6 11.67 (16:30) 6.94 (17:00) 3.6 0 0 3 0.6
06-04-2019 17.1 (18:40) 9.4 (00:00) 13.3 12.5 (18:20) 8.06 (14:10) 1.4 0 0 1.4 0
05-04-2019 17.6 (16:00) 10.2 (00:00) 13.9 15 (05:10) 8.89 (18:10) 14.2 11.8 1.6 0 0.8
04-04-2019 20.7 (17:10) 7.3 (00:00) 14 12.5 (18:10) 8.61 (18:00) 0 0 0 0 0
03-04-2019 22.4 (16:00) 10.1 (00:00) 16.3 13.06 (17:40) 7.5 (17:40) 0 0 0 0 0
02-04-2019 22.8 (17:20) 9.6 (00:00) 16.2 7.22 (18:10) 5 (20:00) 0 0 0 0 0
01-04-2019 21.4 (14:20) 11.9 (00:00) 16.6 10.28 (17:10) 6.67 (17:10) 0.8 0.6 0.2 0 0
31-03-2019 22.6 (15:10) 11.9 (00:00) 17.3 8.06 (14:40) 5.83 (14:40) 0 0 0 0 0
30-03-2019 24.3 (15:40) 8.8 (00:00) 16.5 10.28 (17:20) 6.94 (17:20) 0 0 0 0 0
29-03-2019 23.2 (14:40) 7.6 (00:00) 15.4 8.61 (16:50) 6.11 (16:50) 0 0 0 0 0
28-03-2019 23.2 (16:10) 7.5 (00:00) 15.4 9.72 (16:40) 6.11 (16:40) 0 0 0 0 0
27-03-2019 23.2 (16:10) 10.2 (00:00) 16.7 10.56 (13:20) 6.11 (19:30) 0 0 0 0 0
26-03-2019 25 (14:30) 11.7 (00:00) 18.3 10.83 (10:50) 6.67 (10:40) 0 0 0 0 0
25-03-2019 24.8 (16:00) 9.2 (00:00) 17 11.39 (15:30) 6.39 (14:30) 0 0 0 0 0
24-03-2019 24.2 (16:10) 9.6 (00:00) 16.9 9.44 (16:10) 5.28 (12:30) 0 0 0 0 0
23-03-2019 22.9 (15:20) 8.6 (00:00) 15.8 11.67 (17:20) 6.94 (11:40) 0 0 0 0 0
22-03-2019 21.4 (16:50) 5.5 (00:00) 13.4 9.72 (11:20) 6.11 (12:50) 0 0 0 0 0
21-03-2019 20.4 (16:20) 6.1 (00:00) 13.2 11.39 (14:00) 6.67 (12:30) 0 0 0 0 0

Gráficas

Temp. máximas Temp. mínimas Temp. medias Precipitaciones Rachas de viento máximas Velocidades máximas media en intervalos de 10 minutos

Datos horarios

Fecha y hora oficial Temperatura (ºC) Velocidad del viento (km/h) Dirección del viento Racha (km/h) Dirección de racha Precipitación (mm) Presión (hPa) Tendencia (hPa) Humedad (%)
2019-04-19 23:00:00 13.8 7 Norte 19 Norte 0 1013.6 1.3 88
2019-04-19 22:00:00 14.1 4 Noroeste 14 Noroeste 0 1013.1 1 88
2019-04-19 21:00:00 14.7 4 Noroeste 13 Noroeste 0 1012.6 0.4 82
2019-04-19 20:00:00 15.6 9 Noroeste 15 Noroeste 0 1012.3 -0.1 79
2019-04-19 19:00:00 16.4 6 Sudoeste 13 Sudoeste 0 1012.1 -0.3 79
2019-04-19 18:00:00 16.2 7 Sudoeste 12 Oeste 0.2 1012.2 0.4 76
2019-04-19 17:00:00 14.8 5 Noroeste 24 Norte 3.6 1012.4 0 87
2019-04-19 16:00:00 16.7 12 Noroeste 30 Sur 1.2 1012.4 -0.6 66
2019-04-19 15:00:00 20.1 14 Sur 25 Sur 0 1011.8 -1.5 56
2019-04-19 14:00:00 19.2 6 Noroeste 13 Sudeste 0 1012.4 -0.6 52
2019-04-19 13:00:00 18.2 6 Noroeste 15 Norte 0 1013 0.2 56
2019-04-19 12:00:00 16.3 3 Norte 10 Norte 0 1013.3 0.7 77
2019-04-19 11:00:00 14.1 5 Norte 14 Noroeste 0 1013 0.7 84
2019-04-19 10:00:00 10.8 6 Norte 12 Norte 0 1012.8 0.8 98
2019-04-19 09:00:00 9.1 9 Noroeste 21 Noroeste 0 1012.6 0.8 99
2019-04-19 08:00:00 8.5 14 Noroeste 23 Noroeste 0 1012.3 0.1 98
2019-04-19 07:00:00 9.3 3 Norte 12 Noroeste 0 1012 -0.3 96
2019-04-19 06:00:00 9.9 3 Norte 5 Nordeste 0 1011.8 -0.7 97
2019-04-19 05:00:00 10 0 Calma 7 Nordeste 0 1012.2 -0.5 95
2019-04-19 04:00:00 9.7 4 Nordeste 12 Nordeste 0 1012.3 -0.6 95
2019-04-19 03:00:00 9.9 3 Norte 8 Nordeste 0 1012.5 -0.3 93
2019-04-19 02:00:00 12 7 Noroeste 17 Noroeste 0 1012.7 0 86
2019-04-19 01:00:00 11.5 9 Noroeste 15 Noroeste 0 1012.9 0.7 90
2019-04-19 00:00:00 12.5 8 Noroeste 17 Norte 0 1012.8 1.1 85
2019-04-18 23:00:00 13.5 6 Norte 10 Norte 0 1012.7 1.2 84
2019-04-18 22:00:00 13.7 6 Norte 9 Norte 0 1012.2 1 81
2019-04-18 21:00:00 15.1 7 Sur 11 Sudoeste 0 1011.7 0.8 75
2019-04-18 20:00:00 15.5 8 Oeste 14 Oeste 0 1011.5 0.5 71
2019-04-18 19:00:00 17.4 4 Sur 10 Nordeste 0 1011.2 -0.2 54
2019-04-18 18:00:00 17.1 8 Nordeste 18 Nordeste 0 1010.9 0 61
2019-04-18 17:00:00 16.1 8 Norte 26 Noroeste 0 1011 0 72
2019-04-18 16:00:00 15.9 15 Oeste 34 Sudoeste 0 1011.4 0.3 76
2019-04-18 15:00:00 17.5 25 Sudoeste 37 Sudoeste 0 1010.9 -0.5 73
2019-04-18 14:00:00 17.9 18 Sur 29 Sur 0.2 1011 -0.5 77
2019-04-18 13:00:00 17.4 18 Sur 38 Sur 0 1011.1 -0.3 73
2019-04-18 12:00:00 17.9 5 Este 11 Este 0 1011.4 0.6 69
2019-04-18 11:00:00 16.1 3 Oeste 11 Noroeste 0 1011.5 0.8 80
2019-04-18 10:00:00 14.2 4 Nordeste 8 Norte 0 1011.4 0.9 93
2019-04-18 09:00:00 13 3 Noroeste 9 Sudeste 0.2 1010.8 1.1 97
2019-04-18 08:00:00 12.9 4 Sudeste 7 Sudeste 0 1010.7 0.5 98
2019-04-18 07:00:00 12.6 2 Noroeste 24 Noroeste 0 1010.5 0.1 97
2019-04-18 06:00:00 13.4 8 Sudeste 23 Oeste 0.8 1009.7 -1.4 98
2019-04-18 05:00:00 12.5 8 Nordeste 12 Nordeste 1.2 1010.2 -1.3 98
2019-04-18 04:00:00 12.1 8 Nordeste 10 Nordeste 0 1010.4 -1.2 93
2019-04-18 03:00:00 12.3 6 Nordeste 10 Nordeste 0 1011.1 -0.4 93
2019-04-18 02:00:00 12.6 4 Sudoeste 11 Sudoeste 0 1011.5 0.2 93
2019-04-18 01:00:00 13.1 5 Sudoeste 8 Sudoeste 0 1011.6 0.8 89
2019-04-18 00:00:00 14 6 Sudoeste 18 Sudoeste 0 1011.5 1.4 84
2019-04-17 23:00:00 15.3 12 Sudoeste 22 Sudoeste 0 1011.3 2.4 77
2019-04-17 22:00:00 15.4 12 Oeste 29 Oeste 0 1010.8 1.6 73
2019-04-17 21:00:00 15.9 15 Sudoeste 26 Sudoeste 0 1010.1 0.7 68
2019-04-17 20:00:00 15.6 6 Sur 23 Sudeste 0 1008.9 0.1 73
2019-04-17 19:00:00 16.5 11 Sur 17 Sudoeste 0 1009.2 -0.2 63
2019-04-17 18:00:00 16.1 12 Sudoeste 26 Sudoeste 0 1009.4 0.6 74
2019-04-17 17:00:00 15.6 13 Sudoeste 30 Sudoeste 0 1008.8 0.4 77
2019-04-17 16:00:00 14.9 17 Sudoeste 47 Sudoeste 0.4 1009.4 0.7 83
2019-04-17 15:00:00 18.6 32 Sur 55 Sur 0 1008.8 0.4 73
2019-04-17 14:00:00 20.6 36 Sur 52 Sur 0 1008.4 -0.4 64
2019-04-17 13:00:00 19.7 32 Sur 52 Sur 0 1008.7 0.2 71
2019-04-17 12:00:00 18.9 33 Sur 52 Sudeste 0 1008.4 0 71
2019-04-17 11:00:00 18 28 Sur 40 Sur 0 1008.8 0.9 76
2019-04-17 10:00:00 15.3 5 Sudeste 10 Este 0 1008.5 0.8 88
2019-04-17 09:00:00 11.7 4 Nordeste 14 Nordeste 0 1008.4 0.7 91
2019-04-17 08:00:00 11 10 Nordeste 13 Nordeste 0 1007.9 -0.6 90
2019-04-17 07:00:00 11 6 Nordeste 14 Nordeste 0 1007.7 -1.5 91
2019-04-17 06:00:00 11.1 8 Nordeste 11 Nordeste 0 1007.7 -2.2 92
2019-04-17 05:00:00 11.5 8 Nordeste 12 Nordeste 0 1008.5 -2 94
2019-04-17 04:00:00 11.8 8 Nordeste 11 Nordeste 0 1009.2 -1.7 95
2019-04-17 03:00:00 12.6 7 Nordeste 11 Nordeste 0 1009.9 -1.2 93
2019-04-17 02:00:00 13.3 6 Nordeste 8 Nordeste 0 1010.5 -0.6 91
2019-04-17 01:00:00 14 3 Este 7 Oeste 0 1010.9 0.5 89
2019-04-17 00:00:00 14.5 4 Oeste 20 Oeste 0 1011.1 1 86
2019-04-16 23:00:00 14.5 9 Oeste 14 Oeste 0 1011.1 0.8 87
2019-04-16 22:00:00 15.3 11 Oeste 15 Oeste 0 1010.4 0.1 80
2019-04-16 21:00:00 16.8 8 Sudoeste 17 Sudoeste 0 1010.1 -0.7 71
2019-04-16 20:00:00 19 12 Sur 23 Sur 0 1010.3 -1.3 60
2019-04-16 19:00:00 21.3 13 Sudoeste 26 Sudoeste 0 1010.3 -2.1 54
2019-04-16 18:00:00 22.1 16 Sudoeste 26 Sur 0 1010.8 -2.7 49
2019-04-16 17:00:00 22.9 16 Sudoeste 27 Sudoeste 0 1011.6 -2.9 47
2019-04-16 16:00:00 23.1 17 Sudoeste 26 Sur 0 1012.4 -3 44
2019-04-16 15:00:00 23.1 11 Sur 21 Sur 0 1013.5 -2.2 44
2019-04-16 14:00:00 21.5 12 Sudoeste 24 Sudoeste 0 1014.5 -1.3 49
2019-04-16 13:00:00 20.6 13 Sudoeste 23 Sur 0 1015.4 -0.7 50
2019-04-16 12:00:00 19.3 7 Sur 14 Sur 0 1015.7 -0.4 58
2019-04-16 11:00:00 17.1 5 Este 12 Este 0 1015.8 0 68
2019-04-16 10:00:00 13.1 4 Nordeste 9 Nordeste 0 1016.1 0.4 84
2019-04-16 09:00:00 10.1 4 Nordeste 9 Nordeste 0 1016.1 0.3 90
2019-04-16 08:00:00 8.9 4 Nordeste 11 Norte 0 1015.8 -0.4 92
2019-04-16 07:00:00 10 5 Norte 12 Norte 0 1015.7 -0.9 92
2019-04-16 06:00:00 10.9 5 Norte 13 Norte 0 1015.8 -1.1 90
2019-04-16 05:00:00 10.3 3 Noroeste 9 Noroeste 0 1016.2 -0.9 91
2019-04-16 04:00:00 11.6 6 Noroeste 14 Noroeste 0 1016.6 -0.4 87
2019-04-16 03:00:00 12.6 7 Noroeste 20 Noroeste 0 1016.9 0.1 85
2019-04-16 02:00:00 12.7 9 Noroeste 17 Noroeste 0 1017.1 0.9 85
2019-04-16 01:00:00 12.9 12 Noroeste 17 Noroeste 0 1017 1.5 81
2019-04-16 00:00:00 13.8 10 Oeste 17 Noroeste 0 1016.8 2.4 74
2019-04-15 23:00:00 15.2 9 Oeste 23 Noroeste 0 1016.2 2.4 65
2019-04-15 22:00:00 16.8 15 Noroeste 23 Noroeste 0 1015.5 1.8 60
2019-04-15 21:00:00 19.1 13 Noroeste 22 Oeste 0 1014.4 1.4 53
2019-04-15 20:00:00 19.1 16 Sudoeste 38 Sudoeste 0 1013.8 0.7 68
2019-04-15 19:00:00 20.6 24 Sudoeste 36 Oeste 0 1013.7 1.2 63
2019-04-15 18:00:00 20.6 21 Sudoeste 38 Sudoeste 0 1013 1 70
2019-04-15 17:00:00 20.4 29 Sudoeste 44 Sudoeste 0 1013.1 0.8 65
2019-04-15 16:00:00 22 29 Sudoeste 44 Sudoeste 0 1012.5 0.1 55
2019-04-15 15:00:00 24.3 18 Oeste 36 Sudoeste 0 1012 -0.1 46
2019-04-15 14:00:00 23.7 14 Noroeste 27 Oeste 0 1012.3 0.7 40
2019-04-15 13:00:00 22.1 12 Noroeste 34 Oeste 0 1012.4 0.8 52
2019-04-15 12:00:00 21.6 13 Noroeste -- -- 0 1012.1 0.5 57
2019-04-15 11:00:00 19 9 Noroeste 17 Oeste -- 1011.6 0.5 72
2019-04-15 10:00:00 16.1 4 Norte 8 Nordeste 0 1011.6 1.3 78
2019-04-15 09:00:00 12.2 2 Nordeste 6 Nordeste 0 1011.6 1.9 90
2019-04-15 08:00:00 11.7 2 Norte 17 Noroeste 0 1011.1 1.2 91
2019-04-15 07:00:00 11.9 13 Noroeste 17 Noroeste 0 1010.3 -0.1 91
2019-04-15 06:00:00 12.5 3 Norte 5 Noroeste 0 1009.7 -1.3 88
2019-04-15 05:00:00 13.2 5 Nordeste 8 Norte 0 1009.9 -1.9 84
2019-04-15 04:00:00 14 4 Norte 8 Nordeste 0 1010.4 -2 82
2019-04-15 03:00:00 14.9 4 Nordeste 7 Nordeste 0 1011 -1.6 78
2019-04-15 02:00:00 15.7 4 Norte 8 Nordeste 0 1011.8 -0.9 79
2019-04-15 01:00:00 16.3 3 Nordeste 6 Norte 0 1012.4 -0.2 71
2019-04-15 00:00:00 17.5 3 Oeste 6 Oeste 0 1012.6 0.1 66
2019-04-14 23:00:00 19.2 5 Noroeste 10 Noroeste 0 1012.7 0.1 60
2019-04-14 22:00:00 19.7 5 Oeste 15 Oeste 0 1012.6 -0.2 58
2019-04-14 21:00:00 20.8 8 Oeste 15 Sudoeste 0 1012.5 -0.7 57
2019-04-14 20:00:00 22.6 7 Sur 14 Sudoeste 0 1012.6 -1.1 50
2019-04-14 19:00:00 23.6 10 Sudoeste 19 Sudoeste 0 1012.8 -1.7 46
2019-04-14 18:00:00 24.6 16 Sudoeste 23 Sudoeste 0 1013.2 -1.8 44
2019-04-14 17:00:00 25.5 16 Sudoeste 24 Oeste 0 1013.7 -1.9 42
2019-04-14 16:00:00 26.7 13 Sudoeste 22 Sur 0 1014.5 -1.7 41
2019-04-14 15:00:00 25.8 13 Sudoeste 23 Sudoeste 0 1015 -1.6 43
2019-04-14 14:00:00 24.9 7 Sudeste 16 Sur 0 1015.6 -1.2 45
2019-04-14 13:00:00 23.7 6 Sudoeste 17 Este 0 1016.2 -0.6 51
2019-04-14 12:00:00 21.5 5 Este 13 Este 0 1016.6 -0.2 58
2019-04-14 11:00:00 19 6 Este 13 Este 0 1016.8 0.3 65
2019-04-14 10:00:00 16.1 5 Nordeste 9 Norte 0 1016.8 0.6 77
2019-04-14 09:00:00 13.8 6 Nordeste 14 Noroeste 0 1016.8 0.5 87
2019-04-14 08:00:00 12.2 3 Nordeste 12 Norte 0 1016.5 0 88
2019-04-14 07:00:00 13.3 8 Norte 14 Norte 0 1016.2 -0.7 88
2019-04-14 06:00:00 13.5 7 Norte 10 Norte 0 1016.3 -1 87
2019-04-14 05:00:00 14.1 4 Nordeste 22 Norte 0 1016.5 -1.2 83
2019-04-14 04:00:00 14.7 6 Norte 14 Norte 0 1016.9 -0.9 83
2019-04-14 03:00:00 15.2 7 Norte 18 Norte 0 1017.3 -0.8 81
2019-04-14 02:00:00 15.3 9 Noroeste 20 Noroeste 0 1017.7 -0.6 78
2019-04-14 01:00:00 15.1 9 Noroeste 13 Noroeste 0 1017.8 0.2 68
2019-04-14 00:00:00 15.2 3 Oeste 12 Oeste 0 1018.1 1.1 70
2019-04-13 23:00:00 15.7 9 Oeste 15 Oeste 0 1018.3 1.5 70
2019-04-13 22:00:00 16.9 9 Oeste 30 Oeste 0 1017.6 0.9 52
2019-04-13 21:00:00 17.8 21 Oeste 34 Sudoeste 0 1017 0.5 48
2019-04-13 20:00:00 19.6 24 Oeste 37 Oeste 0 1016.8 -0.1 40
2019-04-13 19:00:00 21 23 Sudoeste 35 Sudoeste 0 1016.7 -0.6 43
2019-04-13 18:00:00 22 18 Sudoeste 30 Sudoeste 0 1016.5 -0.9 46
2019-04-13 17:00:00 22.5 20 Sudoeste 30 Sudoeste 0 1016.9 -0.8 44
2019-04-13 16:00:00 23.1 18 Sudoeste 30 Sur 0 1017.3 -0.6 35
2019-04-13 15:00:00 23.4 18 Sur 26 Sur 0 1017.4 -0.8 37
2019-04-13 14:00:00 23 18 Sur 27 Sur 0 1017.7 -0.5 40
2019-04-13 13:00:00 22.6 9 Sudoeste 15 Sudeste 0 1017.9 -0.1 40
2019-04-13 12:00:00 20.3 8 Este 12 Este 0 1018.2 0.4 48
2019-04-13 11:00:00 17.3 4 Norte 13 Norte 0 1018.2 1 63
2019-04-13 10:00:00 13.6 9 Norte 13 Norte 0 1018 1.1 73
2019-04-13 09:00:00 11.3 6 Norte 16 Norte 0 1017.8 1 82
2019-04-13 08:00:00 10.3 6 Norte 13 Norte 0 1017.2 0.6 84
2019-04-13 07:00:00 10.6 7 Norte 11 Norte 0 1016.9 0.2 82
2019-04-13 06:00:00 11.6 9 Norte 21 Norte 0 1016.8 -0.1 77
2019-04-13 05:00:00 12.4 7 Noroeste 19 Noroeste 0 1016.6 -0.5 74
2019-04-13 04:00:00 12.8 10 Noroeste 24 Noroeste 0 1016.7 -0.1 72
2019-04-13 03:00:00 13.5 13 Noroeste 26 Oeste 0 1016.9 0.1 69
2019-04-13 02:00:00 13.5 10 Noroeste 20 Noroeste 0 1017.1 0.8 71
2019-04-13 01:00:00 14.3 13 Noroeste 19 Norte 0 1016.8 1.3 66
2019-04-13 00:00:00 15 12 Noroeste 23 Oeste 0 1016.8 1.6 62
2019-04-12 23:00:00 15.8 14 Oeste 28 Oeste 0 1016.3 1.4 54
2019-04-12 22:00:00 16.7 21 Oeste 30 Oeste 0 1015.5 0.6 48
2019-04-12 21:00:00 17.3 17 Oeste 32 Oeste 0 1015.2 0.3 50
2019-04-12 20:00:00 19.1 25 Oeste 34 Sudoeste 0 1014.9 -0.3 43
2019-04-12 19:00:00 19.7 25 Sudoeste 35 Sudoeste 0 1014.9 -0.9 48
2019-04-12 18:00:00 21.5 20 Sudoeste 33 Sudoeste 0 1014.9 -1.3 44
2019-04-12 17:00:00 22.3 21 Sudoeste 33 Sudoeste 0 1015.2 -1.6 37
2019-04-12 16:00:00 22.8 18 Sudoeste 28 Sudoeste 0 1015.8 -1.4 32
2019-04-12 15:00:00 23.1 15 Sudoeste 26 Sur 0 1016.2 -1.1 34
2019-04-12 14:00:00 22.5 8 Sudoeste 15 Sur 0 1016.8 -0.4 31
2019-04-12 13:00:00 20.7 7 Sudeste 13 Sudeste 0 1017.2 0.2 42
2019-04-12 12:00:00 18.4 4 Este 11 Nordeste 0 1017.3 0.4 48
2019-04-12 11:00:00 15.2 7 Norte 16 Noroeste 0 1017.2 0.8 66
2019-04-12 10:00:00 12.4 7 Noroeste 15 Nordeste 0 1017 1 78
2019-04-12 09:00:00 10.4 6 Norte 14 Norte 0 1016.9 1 84
2019-04-12 08:00:00 9.9 5 Norte 14 Norte 0 1016.4 0.4 85
2019-04-12 07:00:00 10.4 5 Norte 16 Oeste 0 1016 -0.1 84
2019-04-12 06:00:00 10.8 7 Noroeste 17 Norte 0 1015.9 -0.5 82
2019-04-12 05:00:00 11.6 4 Norte 16 Oeste 0 1016 -0.7 79
2019-04-12 04:00:00 12.4 8 Noroeste 21 Oeste 0 1016.1 -0.8 76
2019-04-12 03:00:00 13 5 Noroeste 22 Noroeste 0 1016.4 -0.5 73
2019-04-12 02:00:00 13.5 12 Noroeste 26 Noroeste 0 1016.7 0.1 71
2019-04-12 01:00:00 14.2 13 Noroeste 26 Noroeste 0 1016.9 1 69
2019-04-12 00:00:00 14.3 12 Noroeste 22 Noroeste 0 1016.9 1.5 68
2019-04-11 23:00:00 15.3 13 Noroeste 21 Noroeste 0 1016.6 1.6 54
2019-04-11 22:00:00 16.5 10 Noroeste 15 Oeste 0 1015.9 0.9 51
2019-04-11 21:00:00 18.7 7 Oeste 26 Noroeste 0 1015.4 0.4 43
2019-04-11 20:00:00 20.9 15 Noroeste 38 Oeste 0 1015 -0.2 35
2019-04-11 19:00:00 22 13 Noroeste 31 Noroeste 0 1015 -1.1 32
2019-04-11 18:00:00 22.8 16 Noroeste 32 Noroeste 0 1015 -1.7 32
2019-04-11 17:00:00 22.3 12 Norte 32 Noroeste 0 1015.2 -2.1 31
2019-04-11 16:00:00 22.3 13 Noroeste 28 Norte 0 1016.1 -1.8 40
2019-04-11 15:00:00 20.6 11 Noroeste 33 Noroeste 0 1016.7 -1.4 47
2019-04-11 14:00:00 20 13 Noroeste 27 Oeste 0 1017.3 -0.7 46
2019-04-11 13:00:00 18.3 12 Noroeste 22 Norte 0 1017.9 0 54
2019-04-11 12:00:00 16.5 10 Norte 23 Oeste 0 1018.1 0.7 60
2019-04-11 11:00:00 14.1 12 Norte 21 Norte 0 1018 0.9 72
2019-04-11 10:00:00 11.9 8 Norte 23 Noroeste 0 1017.9 1 79
2019-04-11 09:00:00 9.5 12 Noroeste 24 Oeste 0 1017.4 0.7 89
2019-04-11 08:00:00 8.4 4 Oeste 14 Oeste 0 1017.1 0.2 91
2019-04-11 07:00:00 9.2 6 Noroeste 24 Noroeste 0 1016.9 0 88
2019-04-11 06:00:00 9.7 12 Noroeste 27 Oeste 0 1016.7 -0.5 86
2019-04-11 05:00:00 10.1 9 Noroeste 23 Noroeste 0 1016.9 -0.6 83
2019-04-11 04:00:00 10.5 13 Noroeste 26 Noroeste 0 1016.9 -0.6 81
2019-04-11 03:00:00 11.5 12 Noroeste 22 Oeste 0 1017.2 -0.2 76
2019-04-11 02:00:00 11.3 13 Oeste 20 Oeste 0 1017.5 0.6 81
2019-04-11 01:00:00 12.5 15 Oeste 19 Oeste 0 1017.5 1.2 77
2019-04-11 00:00:00 13.5 13 Oeste 20 Oeste 0 1017.4 2.2 76
2019-04-10 23:00:00 14.1 12 Oeste 21 Noroeste 0 1016.9 2 73
2019-04-10 22:00:00 15.3 15 Oeste 30 Noroeste 0 1016.3 1.7 66
2019-04-10 21:00:00 17.6 16 Noroeste 29 Noroeste 0 1015.2 0.7 56
2019-04-10 20:00:00 18.6 17 Noroeste 36 Noroeste 0 1014.9 0 47
2019-04-10 19:00:00 20.5 16 Noroeste 57 Noroeste 0 1014.6 -0.9 38
2019-04-10 18:00:00 21.5 20 Noroeste 43 Noroeste 0 1014.5 -1.5 35
2019-04-10 17:00:00 21.4 21 Noroeste 44 Noroeste 0 1014.9 -1.9 37
2019-04-10 16:00:00 20.9 26 Noroeste 44 Noroeste 0 1015.5 -2.1 39
2019-04-10 15:00:00 19.3 17 Noroeste 36 Noroeste 0 1016 -1.8 46
2019-04-10 14:00:00 18.2 20 Noroeste 39 Noroeste 0 1016.8 -1.2 54
2019-04-10 13:00:00 17.2 12 Noroeste 35 Noroeste 0 1017.6 -0.4 56
2019-04-10 12:00:00 15.8 17 Noroeste 36 Oeste 0 1017.8 0.1 61
2019-04-10 11:00:00 13.7 17 Noroeste 26 Oeste 0 1018 0.9 76
2019-04-10 10:00:00 11.4 11 Noroeste 15 Oeste 0 1018 1 90
2019-04-10 09:00:00 8.6 6 Noroeste 13 Noroeste 0 1017.7 0.7 96
2019-04-10 08:00:00 7.7 5 Noroeste 10 Noroeste 0 1017.1 -0.3 96
2019-04-10 07:00:00 8.4 7 Noroeste 10 Noroeste 0 1017 -0.4 95
2019-04-10 06:00:00 8.6 6 Noroeste 11 Noroeste 0 1017 -0.6 94
2019-04-10 05:00:00 9.1 7 Noroeste 12 Noroeste 0 1017.4 -0.2 94
2019-04-10 04:00:00 9.1 9 Noroeste 16 Noroeste 0 1017.4 -0.2 93
2019-04-10 03:00:00 10.4 10 Noroeste 32 Noroeste 0 1017.6 0 87
2019-04-10 02:00:00 11.2 13 Noroeste 24 Noroeste 0 1017.6 0.3 84
2019-04-10 01:00:00 11.6 13 Noroeste 23 Oeste 0 1017.6 1.3 81
2019-04-10 00:00:00 12.2 15 Noroeste 22 Noroeste 0 1017.6 2 76
2019-04-09 23:00:00 12.9 13 Oeste 24 Noroeste 0 1017.3 2.1 73
2019-04-09 22:00:00 14.2 15 Oeste 31 Noroeste 0 1016.3 1.3 67
2019-04-09 21:00:00 16 21 Noroeste 34 Noroeste 0 1015.6 0.6 56
2019-04-09 20:00:00 18.3 19 Noroeste 37 Noroeste 0 1015.2 -0.4 48
2019-04-09 19:00:00 19.2 22 Noroeste 33 Noroeste 0 1015 -0.8 47
2019-04-09 18:00:00 18.6 20 Sudoeste 37 Sudoeste 0 1015 -0.9 60
2019-04-09 17:00:00 17.2 26 Sudoeste 39 Oeste 0 1015.6 -1.1 65
2019-04-09 16:00:00 16.7 23 Sudoeste 36 Sudoeste 0 1015.8 -1.1 66
2019-04-09 15:00:00 19.1 22 Sudoeste 33 Sudoeste 0 1015.9 -1.3 51
2019-04-09 14:00:00 17.5 21 Sudoeste 32 Oeste 0 1016.7 -0.6 63
2019-04-09 13:00:00 18.9 17 Oeste 28 Oeste 0 1016.9 -0.3 50
2019-04-09 12:00:00 17.5 14 Oeste 27 Oeste 0 1017.2 0.3 62
2019-04-09 11:00:00 14.4 13 Oeste 21 Oeste 0 1017.3 1 76
2019-04-09 10:00:00 12.8 4 Noroeste 7 Noroeste 0 1017.2 1 83
2019-04-09 09:00:00 9.6 0 Calma 10 Nordeste 0 1016.9 0.8 92
2019-04-09 08:00:00 9.7 7 Norte 13 Oeste 0 1016.3 0 86
2019-04-09 07:00:00 10.4 9 Oeste 13 Oeste 0 1016.2 -0.2 91
2019-04-09 06:00:00 9.2 0 Calma 8 Oeste 0 1016.1 -0.6 91
2019-04-09 05:00:00 10.1 8 Oeste 12 Oeste 0 1016.3 -0.4 85
2019-04-09 04:00:00 10.6 10 Oeste 18 Oeste 0 1016.4 -0.2 84
2019-04-09 03:00:00 10.2 10 Oeste 15 Oeste 0 1016.7 0.4 84
2019-04-09 02:00:00 10.1 9 Oeste 16 Oeste 0 1016.7 0.8 84
2019-04-09 01:00:00 10.5 14 Oeste 20 Noroeste 0 1016.6 1.6 83
2019-04-09 00:00:00 11.7 15 Oeste 23 Noroeste 0 1016.3 2.1 77
2019-04-08 23:00:00 12.7 17 Oeste 25 Oeste 0 1015.9 2.2 73
2019-04-08 22:00:00 13.6 13 Noroeste 29 Noroeste 0 1015 1.4 71
2019-04-08 21:00:00 15.7 14 Noroeste 21 Noroeste 0 1014.2 0.7 61
2019-04-08 20:00:00 16.5 19 Sudoeste 41 Sudoeste 0 1013.7 0 75
2019-04-08 19:00:00 17.1 27 Sudoeste 46 Oeste 0 1013.6 -0.9 75
2019-04-08 18:00:00 17.4 26 Sudoeste 45 Sudoeste 0 1013.5 -1.2 76
2019-04-08 17:00:00 17.9 26 Sudoeste 38 Sudoeste 0 1013.7 -0.7 77
2019-04-08 16:00:00 16.5 21 Sudoeste 34 Sudoeste 0 1014.5 -0.3 80
2019-04-08 15:00:00 16.6 20 Sudoeste 30 Sudoeste 0 1014.7 0.1 83
2019-04-08 14:00:00 17.2 13 Oeste 21 Noroeste 0 1014.4 0.4 77
2019-04-08 13:00:00 18.2 12 Noroeste 22 Noroeste 0 1014.8 0.8 78
2019-04-08 12:00:00 16.3 10 Noroeste 22 Oeste 0 1014.6 0.6 86
2019-04-08 11:00:00 16.2 19 Sudoeste 27 Oeste 1 1014 0.3 94
2019-04-08 10:00:00 14.9 15 Sudoeste 27 Sudoeste 4 1014 0.5 97
2019-04-08 09:00:00 15 11 Sudoeste 22 Sudoeste 0.6 1014 0.5 96
2019-04-08 08:00:00 14.9 11 Sudoeste 18 Sudoeste 0 1013.7 -0.1 95
2019-04-08 07:00:00 14.8 12 Sudoeste 20 Sudoeste 0.2 1013.5 -0.7 94
2019-04-08 06:00:00 14.8 12 Sudoeste 19 Sudoeste 0 1013.5 -0.9 93
2019-04-08 05:00:00 14.4 8 Sudoeste 18 Sudoeste 0 1013.8 -0.8 96
2019-04-08 04:00:00 14.4 13 Sudoeste 27 Sudoeste 0 1014.2 -0.6 94
2019-04-08 03:00:00 14.8 15 Sudoeste 27 Sudoeste 0 1014.4 -0.4 95
2019-04-08 02:00:00 14.8 12 Sudoeste 23 Sudoeste 0 1014.6 -0.1 95
2019-04-08 01:00:00 15 13 Sudoeste 23 Sudoeste 0 1014.8 0.5 93
2019-04-08 00:00:00 15.3 16 Sudoeste 33 Sudoeste 0 1014.8 0.9 93
2019-04-07 23:00:00 15.4 17 Oeste 28 Sudoeste 0 1014.7 1.2 93
2019-04-07 22:00:00 15.4 19 Sudoeste 30 Oeste 0 1014.3 1.5 93
2019-04-07 21:00:00 15.8 18 Oeste 27 Oeste 0 1013.9 1.6 90
2019-04-07 20:00:00 17 9 Oeste 24 Noroeste 0 1013.5 1.4 85
2019-04-07 19:00:00 17.3 14 Oeste 32 Oeste 0.6 1012.8 0.1 87
2019-04-07 18:00:00 16.4 21 Sudoeste 36 Sudoeste 0.8 1012.3 -1.4 94
2019-04-07 17:00:00 16.1 25 Sudoeste 42 Sudoeste 0 1012.1 -2.1 92
2019-04-07 16:00:00 14.8 13 Sur 24 Sudoeste 1.6 1012.7 -1.5 98
2019-04-07 15:00:00 14.2 18 Sur 27 Sudoeste 0.6 1013.7 0 95
2019-04-07 14:00:00 14.8 16 Sudoeste 30 Oeste 0 1014.2 0.9 82
2019-04-07 13:00:00 15.9 14 Sudoeste 28 Sudoeste 0 1014.2 1.1 66
2019-04-07 12:00:00 16.5 12 Oeste 24 Oeste 0 1013.7 1.2 63
2019-04-07 11:00:00 15.2 12 Sudoeste 22 Sudoeste 0 1013.3 1.3 65
2019-04-07 10:00:00 14.2 11 Oeste 19 Oeste 0 1013.1 1.3 68
2019-04-07 09:00:00 11.6 8 Oeste 12 Oeste 0 1012.5 1.1 84
2019-04-07 08:00:00 10.4 7 Oeste 12 Oeste 0 1012 0.6 91
2019-04-07 07:00:00 10.4 9 Noroeste 20 Oeste 0 1011.8 0 87
2019-04-07 06:00:00 11.9 12 Oeste 26 Oeste 0 1011.4 -0.5 85
2019-04-07 05:00:00 10.6 6 Sudoeste 19 Oeste 0 1011.4 -0.6 84
2019-04-07 04:00:00 11.8 14 Oeste 22 Oeste 0 1011.8 -0.1 78
2019-04-07 03:00:00 11.5 12 Oeste 22 Oeste 0 1011.9 0.2 80
2019-04-07 02:00:00 11.9 15 Oeste 23 Oeste 0 1012 0.7 77
2019-04-07 01:00:00 11.4 14 Oeste 21 Sudoeste 0 1011.9 1.5 77
2019-04-07 00:00:00 11.7 13 Oeste 24 Oeste 0 1011.7 2.1 75
2019-04-06 23:00:00 11.8 14 Oeste 24 Oeste 0 1011.3 2.6 73
2019-04-06 22:00:00 12.9 18 Oeste 35 Oeste 0 1010.4 2.5 65
2019-04-06 21:00:00 14.2 23 Oeste 39 Oeste 0 1009.6 2.2 58
2019-04-06 20:00:00 15.5 26 Oeste 42 Oeste 0 1008.7 1 53
2019-04-06 19:00:00 16.3 26 Oeste 45 Oeste 0 1007.9 -0.1 52
2019-04-06 18:00:00 16.9 17 Oeste 37 Noroeste 0.2 1007.4 -0.6 60
2019-04-06 17:00:00 14 24 Oeste 39 Oeste 0.8 1007.7 -1 76
2019-04-06 16:00:00 13.4 21 Sudoeste 33 Sudoeste 0.4 1008 -0.2 81
2019-04-06 15:00:00 15.8 18 Sudoeste 41 Noroeste 0 1008 -0.6 65
2019-04-06 14:00:00 14 27 Noroeste 41 Sudoeste 0 1008.7 0.2 64
2019-04-06 13:00:00 16 17 Sudoeste 35 Oeste 0 1008.2 0.1 57
2019-04-06 12:00:00 14.6 16 Oeste 29 Oeste 0 1008.6 0.9 62
2019-04-06 11:00:00 13.6 15 Oeste 27 Oeste 0 1008.5 0.9 69
2019-04-06 10:00:00 11.7 8 Noroeste 13 Noroeste 0 1008.1 0.8 81
2019-04-06 09:00:00 9.9 7 Oeste 17 Oeste 0 1007.7 0.8 86
2019-04-06 08:00:00 9.5 9 Oeste 15 Oeste 0 1007.6 0.6 86
2019-04-06 07:00:00 10 12 Oeste 21 Oeste 0 1007.3 0.1 84
2019-04-06 06:00:00 9.7 12 Oeste 21 Oeste 0 1006.9 -0.4 82
2019-04-06 05:00:00 9.8 12 Oeste 20 Oeste 0 1007 -0.5 83
2019-04-06 04:00:00 9.5 12 Oeste 26 Oeste 0 1007.2 -0.4 81
2019-04-06 03:00:00 9.9 15 Oeste 24 Oeste 0 1007.3 -0.1 80
2019-04-06 02:00:00 10.4 17 Oeste 26 Oeste 0 1007.5 0.6 79
2019-04-06 01:00:00 10.3 15 Oeste 26 Oeste 0 1007.6 1.6 78
2019-04-06 00:00:00 10.5 17 Oeste 26 Oeste 0 1007.4 2.6 75
2019-04-05 23:00:00 10.3 17 Oeste 27 Oeste 0 1006.9 2.7 74
2019-04-05 22:00:00 10.7 11 Oeste 24 Oeste 0 1006 2.7 73
2019-04-05 21:00:00 11.6 18 Oeste 39 Oeste 0 1004.8 2 69
2019-04-05 20:00:00 12.1 21 Oeste 42 Oeste 0.4 1004.2 1.2 69
2019-04-05 19:00:00 13.8 19 Oeste 49 Oeste 0.4 1003.3 0.5 68
2019-04-05 18:00:00 14.3 29 Sudoeste 46 Sudoeste 0 1002.8 -0.2 58
2019-04-05 17:00:00 14.9 21 Oeste 51 Noroeste 0 1003 -0.2 55
2019-04-05 16:00:00 16.5 22 Oeste 44 Oeste 0 1002.8 -0.2 41
2019-04-05 15:00:00 15.8 22 Oeste 41 Oeste 0 1003 0.4 47
2019-04-05 14:00:00 13.2 15 Noroeste 45 Oeste 0 1003.2 0.8 63
2019-04-05 13:00:00 13.8 26 Oeste 47 Noroeste 0 1003 2.1 57
2019-04-05 12:00:00 12.7 18 Noroeste 35 Noroeste 0 1002.6 2.4 68
2019-04-05 11:00:00 10.8 18 Noroeste 36 Noroeste 0 1002.4 2.7 82
2019-04-05 10:00:00 10.9 21 Noroeste 37 Norte 0.2 1000.9 1.1 88
2019-04-05 09:00:00 10.9 8 Oeste 11 Sudoeste 0 1000.2 -0.1 95
2019-04-05 08:00:00 11.3 5 Oeste 21 Oeste 0 999.7 -1.3 92
2019-04-05 07:00:00 11.4 11 Oeste 19 Oeste 1.4 999.8 -1.8 93
2019-04-05 06:00:00 10.8 10 Sudoeste 54 Oeste 6.4 1000.3 -2.5 95
2019-04-05 05:00:00 12.8 19 Oeste 36 Oeste 0.6 1001 -2.6 91
2019-04-05 04:00:00 11.8 12 Oeste 27 Sudoeste 3.8 1001.6 -2.2 95
2019-04-05 03:00:00 11.4 5 Sur 14 Oeste 0.4 1002.8 -1 91
2019-04-05 02:00:00 11 10 Oeste 26 Oeste 0.6 1003.6 0 86
2019-04-05 01:00:00 12.2 11 Oeste 19 Sudoeste 0 1003.8 1 58
2019-04-05 00:00:00 12.2 11 Oeste 23 Oeste 0 1003.8 1.8 58
2019-04-04 23:00:00 12 13 Noroeste 23 Noroeste 0 1003.6 1.5 58
2019-04-04 22:00:00 13.6 16 Noroeste 36 Noroeste 0 1002.8 0.4 50
2019-04-04 21:00:00 15.3 12 Oeste 36 Sudoeste 0 1002 -0.6 59
2019-04-04 20:00:00 16.4 21 Sudoeste 45 Sudoeste 0 1002.1 -0.5 51
2019-04-04 19:00:00 16.9 27 Sudoeste 45 Sudoeste 0 1002.4 -0.8 45
2019-04-04 18:00:00 17.5 31 Sudoeste 44 Sudoeste 0 1002.6 -1.3 42
2019-04-04 17:00:00 20.6 13 Oeste 32 Noroeste 0 1002.6 -1.9 23
2019-04-04 16:00:00 19.7 15 Oeste 32 Oeste 0 1003.2 -2 24
2019-04-04 15:00:00 18.6 13 Noroeste 31 Oeste 0 1003.9 -1.5 25
2019-04-04 14:00:00 18 12 Oeste 26 Oeste 0 1004.5 -0.8 31
2019-04-04 13:00:00 16.4 14 Noroeste 26 Noroeste 0 1005.2 0.2 38
2019-04-04 12:00:00 14.4 11 Norte 25 Noroeste 0 1005.4 0.6 41
2019-04-04 11:00:00 12.3 9 Norte 24 Norte 0 1005.3 1.3 53
2019-04-04 10:00:00 10 9 Noroeste 28 Norte 0 1005 1.3 63
2019-04-04 09:00:00 7.7 9 Norte 17 Norte 0 1004.8 1.1 76
2019-04-04 08:00:00 7.3 7 Norte 21 Nordeste 0 1004 0.5 75
2019-04-04 07:00:00 7.8 7 Noroeste 25 Oeste 0 1003.7 0.1 74
2019-04-04 06:00:00 8.1 10 Noroeste 28 Noroeste 0 1003.7 -0.5 73
2019-04-04 05:00:00 8.6 12 Noroeste 27 Noroeste 0 1003.5 -1.1 69
2019-04-04 04:00:00 9.3 12 Noroeste 30 Oeste 0 1003.6 -1.3 64
2019-04-04 03:00:00 9.9 13 Noroeste 30 Noroeste 0 1004.2 -0.6 65
2019-04-04 02:00:00 10.9 18 Noroeste 26 Noroeste 0 1004.6 0 60
2019-04-04 01:00:00 12.2 13 Noroeste 29 Noroeste 0 1004.9 1 53
2019-04-04 00:00:00 13.4 10 Noroeste 23 Oeste 0 1004.8 1.2 48
2019-04-03 23:00:00 13.8 9 Noroeste 24 Noroeste 0 1004.6 0.9 49
2019-04-03 22:00:00 15.3 10 Noroeste 22 Noroeste 0 1003.9 -0.1 47
2019-04-03 21:00:00 17.2 14 Noroeste 32 Noroeste 0 1003.6 -0.8 41
2019-04-03 20:00:00 19 23 Noroeste 36 Noroeste 0 1003.7 -1.2 37
2019-04-03 19:00:00 20.1 22 Noroeste 39 Noroeste 0 1004 -1.8 33
2019-04-03 18:00:00 21.1 23 Noroeste 47 Noroeste 0 1004.4 -2.3 34
2019-04-03 17:00:00 21.9 21 Noroeste 40 Noroeste 0 1004.9 -2.7 32
2019-04-03 16:00:00 22.3 21 Oeste 35 Oeste 0 1005.8 -2.4 33
2019-04-03 15:00:00 21.1 14 Noroeste 36 Noroeste 0 1006.7 -1.7 38
2019-04-03 14:00:00 19.5 19 Noroeste 37 Noroeste 0 1007.6 -0.9 40
2019-04-03 13:00:00 18.6 19 Noroeste 34 Noroeste 0 1008.2 -0.4 44
2019-04-03 12:00:00 17.1 14 Norte 30 Norte 0 1008.4 -0.5 48
2019-04-03 11:00:00 15 13 Norte 30 Norte 0 1008.5 -0.4 60
2019-04-03 10:00:00 12.5 9 Norte 21 Norte 0 1008.6 -0.5 78
2019-04-03 09:00:00 10.5 6 Oeste 14 Noroeste 0 1008.9 -0.8 90
2019-04-03 08:00:00 10.3 6 Nordeste 21 Norte 0 1008.9 -1.5 91
2019-04-03 07:00:00 11.1 10 Norte 20 Nordeste 0 1009.1 -1.7 91
2019-04-03 06:00:00 11.9 6 Noroeste 19 Norte 0 1009.7 -1.9 89
2019-04-03 05:00:00 12.3 8 Noroeste 24 Noroeste 0 1010.4 -1.7 87
2019-04-03 04:00:00 13 11 Noroeste 25 Oeste 0 1010.8 -1.5 83
2019-04-03 03:00:00 13.3 12 Noroeste 24 Oeste 0 1011.6 -1 82
2019-04-03 02:00:00 13.2 6 Noroeste 10 Noroeste 0 1012.1 -0.6 89
2019-04-03 01:00:00 14.3 4 Noroeste 10 Noroeste 0 1012.3 0.1 88
2019-04-03 00:00:00 15.2 7 Noroeste 15 Oeste 0 1012.6 0.6 85
2019-04-02 23:00:00 15.7 12 Oeste 21 Oeste 0 1012.7 0.5 85
2019-04-02 22:00:00 16.1 10 Sudoeste 18 Oeste 0 1012.2 0.1 78
2019-04-02 21:00:00 17.1 14 Sudoeste 22 Sudoeste 0 1012 -0.3 71
2019-04-02 20:00:00 18.5 18 Sudoeste 26 Sudoeste 0 1012.2 -0.5 68
2019-04-02 19:00:00 20.8 14 Sudoeste 26 Sur 0 1012.1 -1.2 58
2019-04-02 18:00:00 22.3 14 Sudoeste 25 Sur 0 1012.3 -1.6 54
2019-04-02 17:00:00 22.4 14 Sudoeste 23 Sudoeste 0 1012.7 -2 55
2019-04-02 16:00:00 22.2 14 Sudoeste 24 Sur 0 1013.3 -1.7 55
2019-04-02 15:00:00 21.7 6 Este 16 Sudoeste 0 1013.9 -1.5 51
2019-04-02 14:00:00 21.7 7 Sur 23 Este 0 1014.7 -0.4 54
2019-04-02 13:00:00 19 6 Este 16 Sudeste 0 1015 0 63
2019-04-02 12:00:00 17.7 6 Sudeste 13 Este 0 1015.4 0.5 74
2019-04-02 11:00:00 15 7 Nordeste 12 Norte 0 1015.1 0.6 83
2019-04-02 10:00:00 12.6 4 Norte 10 Norte 0 1015 1.1 89
2019-04-02 09:00:00 10.1 6 Norte 18 Norte 0 1014.9 1 96
2019-04-02 08:00:00 9.9 10 Noroeste 21 Norte 0 1014.5 0.1 95
2019-04-02 07:00:00 10 4 Norte 10 Norte 0 1013.9 -0.4 96
2019-04-02 06:00:00 10.3 5 Norte 12 Norte 0 1013.9 -0.2 95
2019-04-02 05:00:00 10.5 5 Noroeste 11 Norte 0 1014.4 -0.1 93
2019-04-02 04:00:00 11.2 7 Norte 13 Norte 0 1014.3 -0.3 92
2019-04-02 03:00:00 11.9 7 Norte 15 Norte 0 1014.1 -0.1 91
2019-04-02 02:00:00 12.4 4 Norte 13 Noroeste 0 1014.5 0.4 90
2019-04-02 01:00:00 13.2 6 Sur 8 Este 0 1014.6 1 88
2019-04-02 00:00:00 14.2 5 Nordeste 8 Este 0 1014.2 1.5 83
2019-04-01 23:00:00 15.1 3 Este 8 Sudoeste 0 1014.1 2.1 83
2019-04-01 22:00:00 15.7 5 Oeste 20 Sudoeste 0 1013.6 2.1 83
2019-04-01 21:00:00 16.3 13 Sudoeste 26 Oeste 0 1012.7 1.5 79
2019-04-01 20:00:00 17.3 15 Sudoeste 30 Oeste 0 1012 0.9 71
2019-04-01 19:00:00 18.6 18 Sudoeste 35 Sudoeste 0 1011.5 0.2 66
2019-04-01 18:00:00 19.6 21 Sudoeste 37 Sur 0 1011.2 -0.1 62
2019-04-01 17:00:00 21.1 20 Sudoeste 32 Oeste 0 1011.1 -0.3 60
2019-04-01 16:00:00 20.8 21 Sudoeste 37 Oeste 0 1011.3 -0.2 59
2019-04-01 15:00:00 20.4 21 Sudoeste 32 Oeste 0 1011.3 -0.4 61
2019-04-01 14:00:00 20.7 19 Sur 27 Sur 0 1011.4 0.1 61
2019-04-01 13:00:00 20.4 12 Sur 19 Sur 0 1011.5 0.6 61
2019-04-01 12:00:00 18.8 6 Sur 11 Sur 0 1011.7 1.4 74
2019-04-01 11:00:00 15.9 5 Sudoeste 8 Oeste 0 1011.3 1.8 93
2019-04-01 10:00:00 13.2 5 Este 12 Nordeste 0 1010.9 1.7 100
2019-04-01 09:00:00 12.3 6 Nordeste 12 Nordeste 0 1010.3 1.2 100
2019-04-01 08:00:00 12.2 2 Norte 11 Nordeste 0 1009.5 0.3 97
2019-04-01 07:00:00 12.7 7 Nordeste 10 Nordeste 0.2 1009.2 0 95
2019-04-01 06:00:00 13.7 5 Nordeste 12 Nordeste 0.2 1009.1 -0.4 95
2019-04-01 05:00:00 13.2 7 Nordeste 12 Norte 0 1009.2 -0.6 92
2019-04-01 04:00:00 13.8 5 Nordeste 14 Sudeste 0 1009.2 -0.1 89
2019-04-01 03:00:00 13.7 12 Sudeste 23 Sudeste 0.4 1009.5 -0.2 90
2019-04-01 02:00:00 13.2 6 Sudeste 9 Sudeste 0 1009.8 0.4 89
2019-04-01 01:00:00 14.1 5 Nordeste 6 Este 0 1009.3 0.1 85
2019-04-01 00:00:00 13.4 4 Oeste 9 Este 0 1009.7 1.3 85
2019-03-31 23:00:00 15.1 4 Nordeste 13 Norte 0 1009.4 1.3 80
2019-03-31 22:00:00 15.7 8 Noroeste 16 Oeste 0 1009.2 1 81
2019-03-31 21:00:00 16.1 9 Oeste 17 Sudoeste 0 1008.4 0 79
2019-03-31 20:00:00 18.5 11 Sudoeste 18 Sur 0 1008.1 0.2 66
2019-03-31 19:00:00 19.3 10 Sudoeste 20 Sudoeste 0 1008.2 0.2 61
2019-03-31 18:00:00 19 6 Sudoeste 28 Sudoeste 0 1008.4 -0.4 60
2019-03-31 17:00:00 20.9 18 Sudoeste 29 Sur 0 1007.9 -1.6 58
2019-03-31 16:00:00 22.3 17 Sur 27 Sur 0 1008 -2.2 53
2019-03-31 15:00:00 22.4 18 Sur 29 Sur 0 1008.8 -1.8 52
2019-03-31 14:00:00 21 4 Este 17 Nordeste 0 1009.5 -0.8 54
2019-03-31 13:00:00 19.2 8 Este 16 Este 0 1010.2 0.2 57
2019-03-31 12:00:00 18.6 8 Este 19 Este 0 1010.6 0.6 61
2019-03-31 11:00:00 17.5 9 Este 14 Este 0 1010.3 0.8 62
2019-03-31 10:00:00 14.8 9 Nordeste 13 Nordeste 0 1010 0.7 80
2019-03-31 09:00:00 11.9 4 Norte 9 Norte 0 1010 -0.1 89
2019-03-31 08:00:00 12.5 4 Norte 8 Norte 0 1009.5 -1.1 87
2019-03-31 07:00:00 12.5 6 Nordeste 9 Nordeste 0 1009.3 -1.7 86
2019-03-31 06:00:00 12.9 6 Nordeste 9 Nordeste 0 1010.1 -1.6 85
2019-03-31 05:00:00 13 3 Nordeste 7 Nordeste 0 1010.6 -1.8 85
2019-03-31 03:00:00 13.9 4 Nordeste 8 Nordeste 0 1011.7 -1.3 83
2019-03-31 01:00:00 14.2 4 Nordeste 10 Norte 0 1012.4 -0.4 81
2019-03-31 00:00:00 14.6 8 Noroeste 14 Noroeste 0 1012.8 0.7 83
2019-03-30 23:00:00 14.4 2 Sudeste 10 Sur 0 1013 1.2 83
2019-03-30 22:00:00 14.9 6 Sudoeste 12 Sudoeste 0 1012.8 1.1 81
2019-03-30 21:00:00 15.4 8 Sudoeste 21 Sur 0 1012.1 1 78
2019-03-30 20:00:00 16.4 14 Sur 35 Sur 0 1011.8 0.9 73
2019-03-30 19:00:00 17.9 24 Sur 36 Sur 0 1011.7 0.4 67
2019-03-30 18:00:00 19.7 23 Sur 37 Sur 0 1011.1 -0.3 60
2019-03-30 17:00:00 23.2 18 Sudoeste 27 Sudoeste 0 1010.9 -1.5 38
2019-03-30 16:00:00 23.6 21 Sur 31 Sur 0 1011.3 -2.3 40
2019-03-30 15:00:00 23.5 10 Este 22 Sudeste 0 1011.4 -3.2 36
2019-03-30 14:00:00 22.7 9 Este 25 Sudeste 0 1012.4 -2.7 39
2019-03-30 13:00:00 21.7 8 Este 25 Nordeste 0 1013.6 -1.5 41
2019-03-30 12:00:00 20.5 11 Nordeste 26 Nordeste 0 1014.6 -0.7 45
2019-03-30 11:00:00 18.3 16 Este 29 Este 0 1015.1 0 53
2019-03-30 10:00:00 16 16 Este 30 Este 0 1015.1 -0.1 60
2019-03-30 09:00:00 12.2 8 Nordeste 14 Nordeste 0 1015.3 0.1 75
2019-03-30 08:00:00 9.1 5 Norte 9 Nordeste 0 1015.1 -0.3 83
2019-03-30 07:00:00 9.4 6 Nordeste 12 Norte 0 1015.2 -0.8 81
2019-03-30 06:00:00 8.8 6 Nordeste 12 Norte 0 1015.2 -1.4 85
2019-03-30 05:00:00 9.7 6 Nordeste 11 Nordeste 0 1015.4 -1.5 82
2019-03-30 04:00:00 10.7 5 Nordeste 11 Nordeste 0 1016 -1.4 78
2019-03-30 03:00:00 11.6 7 Nordeste 10 Nordeste 0 1016.6 -0.6 77
2019-03-30 02:00:00 12.8 6 Sudeste 13 Sudeste 0 1016.9 -0.5 74
2019-03-30 01:00:00 12.3 3 Sudeste 8 Este 0 1017.4 -0.1 81
2019-03-30 00:00:00 12.7 4 Nordeste 9 Este 0 1017.2 0.4 78
2019-03-29 23:00:00 14 7 Este 10 Este 0 1017.4 1 76
2019-03-29 22:00:00 15.1 5 Sur 12 Sur 0 1017.5 1.1 73
2019-03-29 21:00:00 15.8 8 Sur 15 Sur 0 1016.8 0.7 71
2019-03-29 20:00:00 16.8 9 Sur 20 Sur 0 1016.4 -0.1 68
2019-03-29 19:00:00 17.9 17 Sur 28 Sur 0 1016.4 -0.4 56
2019-03-29 18:00:00 18.9 11 Sur 28 Sur 0 1016.1 -0.9 55
2019-03-29 17:00:00 19.4 22 Sur 31 Sur 0 1016.5 -1.4 54
2019-03-29 16:00:00 22.3 18 Sur 30 Sur 0 1016.8 -1.6 39
2019-03-29 15:00:00 22.9 11 Sur 22 Sur 0 1017 -2.1 37
2019-03-29 14:00:00 22.5 9 Sudeste 22 Sudeste 0 1017.9 -1.5 34
2019-03-29 13:00:00 20.9 9 Sudeste 28 Este 0 1018.4 -1.1 33
2019-03-29 12:00:00 19.3 13 Este 23 Este 0 1019.1 -0.2 31
2019-03-29 11:00:00 17.6 10 Este 21 Este 0 1019.4 0.3 37
2019-03-29 10:00:00 15.3 11 Este 23 Este 0 1019.5 0.8 49
2019-03-29 09:00:00 12.3 11 Nordeste 23 Este 0 1019.3 0.6 59
2019-03-29 08:00:00 8.9 7 Nordeste 15 Este 0 1019.1 0.3 72
2019-03-29 07:00:00 8.2 8 Nordeste 13 Nordeste 0 1018.7 -0.5 75
2019-03-29 06:00:00 7.6 8 Nordeste 12 Nordeste 0 1018.7 -0.5 75
2019-03-29 05:00:00 7.9 8 Nordeste 12 Nordeste 0 1018.8 -0.4 65
2019-03-29 04:00:00 8 5 Nordeste 11 Nordeste 0 1019.2 0 60
2019-03-29 03:00:00 8.3 8 Nordeste 11 Nordeste 0 1019.2 -0.1 54
2019-03-29 02:00:00 8.6 7 Nordeste 10 Nordeste 0 1019.2 -0.4 60
2019-03-29 01:00:00 9.7 8 Nordeste 15 Nordeste 0 1019.2 -0.5 64
2019-03-29 00:00:00 11.9 4 Este 8 Nordeste 0 1019.3 0.1 60
2019-03-28 23:00:00 13 5 Nordeste 14 Este 0 1019.6 1.1 66
2019-03-28 22:00:00 14.4 6 Este 12 Este 0 1019.7 1.6 61
2019-03-28 21:00:00 15.6 3 Sudeste 10 Sudoeste 0 1019.2 1.5 63
2019-03-28 20:00:00 16.6 6 Sudoeste 18 Sur 0 1018.5 0.6 59
2019-03-28 19:00:00 18.9 11 Sur 24 Sur 0 1018.1 0.1 53
2019-03-28 18:00:00 20.3 17 Sur 29 Sudoeste 0 1017.7 -1 46
2019-03-28 17:00:00 21.3 21 Sur 35 Sur 0 1017.9 -1.6 38
2019-03-28 16:00:00 22.6 8 Este 26 Este 0 1018 -2.2 25
2019-03-28 15:00:00 22.4 14 Este 28 Este 0 1018.7 -2.3 27
2019-03-28 14:00:00 21 19 Este 31 Este 0 1019.5 -2.2 30
2019-03-28 13:00:00 20.1 18 Este 35 Este 0 1020.2 -1.5 35
2019-03-28 12:00:00 18.7 17 Este 32 Este 0 1021 -0.5 39
2019-03-28 11:00:00 17.3 15 Este 28 Este 0 1021.7 0.6 45
2019-03-28 10:00:00 15.5 16 Este 26 Este 0 1021.7 1.1 51
2019-03-28 09:00:00 12.7 13 Este 21 Este 0 1021.5 1.3 65
2019-03-28 08:00:00 9.1 10 Nordeste 14 Nordeste 0 1021.1 1.3 78
2019-03-28 07:00:00 7.6 8 Nordeste 15 Norte 0 1020.6 0.7 74
2019-03-28 06:00:00 8.1 3 Nordeste 14 Nordeste 0 1020.2 -0.2 73
2019-03-28 05:00:00 8.2 9 Nordeste 14 Nordeste 0 1019.8 -1.2 73
2019-03-28 04:00:00 8.1 10 Nordeste 15 Nordeste 0 1019.9 -1.3 74
2019-03-28 03:00:00 9.1 4 Nordeste 8 Nordeste 0 1020.4 -0.5 68
2019-03-28 02:00:00 10.6 5 Nordeste 11 Nordeste 0 1021 0.4 64
2019-03-28 01:00:00 10.9 6 Nordeste 13 Nordeste 0 1021.2 1.2 64
2019-03-28 00:00:00 12 8 Nordeste 10 Nordeste 0 1020.9 1.9 60
2019-03-27 23:00:00 13.1 6 Nordeste 17 Sudeste 0 1020.6 2.6 60
2019-03-27 22:00:00 14.1 6 Sudeste 22 Sur 0 1020 2.7 61
2019-03-27 21:00:00 15 13 Sur 28 Sudeste 0 1019 2.1 56
2019-03-27 20:00:00 16.3 20 Sudeste 34 Sur 0 1018 1.2 49
2019-03-27 19:00:00 18.1 18 Sur 31 Sur 0 1017.3 0.6 47
2019-03-27 18:00:00 19.8 22 Sur 33 Sur 0 1016.9 -0.1 37
2019-03-27 17:00:00 21.4 19 Sur 30 Sur 0 1016.8 -0.7 36
2019-03-27 16:00:00 22.9 12 Este 35 Nordeste 0 1016.7 -1.1 25
2019-03-27 15:00:00 22.3 13 Nordeste 31 Este 0 1017 -1.1 26
2019-03-27 14:00:00 21.6 18 Este 38 Este 0 1017.5 -0.5 28
2019-03-27 13:00:00 21.2 18 Este 35 Este 0 1017.8 0.4 28
2019-03-27 12:00:00 19.3 14 Este 28 Este 0 1018.1 1.1 36
2019-03-27 11:00:00 17.3 17 Este 28 Este 0 1018 1.5 42
2019-03-27 10:00:00 16.2 13 Este 26 Este 0 1017.4 2.1 50
2019-03-27 09:00:00 13.8 9 Nordeste 19 Este 0 1017 2.1 64
2019-03-27 08:00:00 11 5 Nordeste 12 Este 0 1016.5 2.2 78
2019-03-27 07:00:00 10.4 7 Nordeste 14 Nordeste 0 1015.3 1.3 80
2019-03-27 06:00:00 11.2 7 Nordeste 14 Nordeste 0 1014.9 1 76
2019-03-27 05:00:00 12.1 8 Nordeste 16 Este 0 1014.3 0.7 68
2019-03-27 04:00:00 12.7 6 Este 12 Este 0 1014 0.2 68
2019-03-27 03:00:00 13.9 6 Este 18 Este 0 1013.9 0.9 68
2019-03-27 02:00:00 14.9 7 Este 15 Sudeste 0 1013.6 1.2 65
2019-03-27 01:00:00 15.2 4 Nordeste 12 Sur 0 1013.8 1.9 65
2019-03-27 00:00:00 16.2 5 Este 12 Este 0 1013 1.9 59
2019-03-26 23:00:00 16 6 Sudeste 15 Sudeste 0 1012.4 2.2 63
2019-03-26 22:00:00 16.3 8 Sur 13 Sudeste 0 1011.9 2.1 64
2019-03-26 21:00:00 18.1 7 Este 12 Este 0 1011.1 1.8 50
2019-03-26 20:00:00 18.5 7 Norte 12 Norte 0 1010.2 1.4 58
2019-03-26 19:00:00 20.1 5 Oeste 15 Sudoeste 0 1009.8 0.6 49
2019-03-26 18:00:00 21 14 Sur 27 Sur 0 1009.3 0.7 46
2019-03-26 17:00:00 23.1 18 Sur 32 Sur 0 1008.8 -0.1 41
2019-03-26 16:00:00 21.6 22 Sudoeste 37 Sur 0 1009.2 0.1 48
2019-03-26 15:00:00 24.9 8 Sudeste 25 Sudeste 0 1008.6 -0.9 33
2019-03-26 14:00:00 24.2 12 Este 24 Este 0 1008.9 -0.2 35
2019-03-26 13:00:00 23.6 13 Este 23 Este 0 1009.1 -0.1 33
2019-03-26 12:00:00 22.6 10 Este 32 Este 0 1009.5 0.4 38
2019-03-26 11:00:00 20.9 22 Este 39 Este 0 1009.1 0.1 41
2019-03-26 10:00:00 19.2 13 Este 23 Este 0 1009.2 0.5 49
2019-03-26 09:00:00 15.6 7 Nordeste 14 Nordeste 0 1009.1 0.5 62
2019-03-26 08:00:00 13.1 6 Nordeste 14 Nordeste 0 1009 0.2 69
2019-03-26 07:00:00 12.6 9 Nordeste 13 Nordeste 0 1008.7 -0.6 69
2019-03-26 06:00:00 11.9 7 Nordeste 12 Este 0 1008.6 -1.1 72
2019-03-26 05:00:00 11.8 9 Nordeste 18 Nordeste 0 1008.8 -1.6 69
2019-03-26 04:00:00 12.2 9 Nordeste 14 Norte 0 1009.3 -1.5 68
2019-03-26 03:00:00 12.1 8 Nordeste 11 Nordeste 0 1009.7 -1.4 71
2019-03-26 02:00:00 12.5 6 Nordeste 10 Nordeste 0 1010.4 -0.6 71
2019-03-26 01:00:00 14 5 Nordeste 10 Nordeste 0 1010.8 0.1 67
2019-03-26 00:00:00 14.3 7 Nordeste 9 Nordeste 0 1011.1 0.6 75
2019-03-25 23:00:00 14.8 6 Nordeste 8 Norte 0 1011 0.7 76
2019-03-25 22:00:00 15.5 3 Nordeste 13 Oeste 0 1010.7 0.6 70
2019-03-25 21:00:00 16.8 8 Oeste 16 Sudoeste 0 1010.5 0.6 64
2019-03-25 20:00:00 19.3 10 Sudoeste 22 Nordeste 0 1010.3 -0.1 54
2019-03-25 19:00:00 23.2 11 Nordeste 28 Este 0 1010.1 -1 36
2019-03-25 18:00:00 24.4 16 Nordeste 39 Este 0 1009.9 -2.2 32
2019-03-25 17:00:00 24.7 18 Nordeste 33 Este 0 1010.4 -2.7 31
2019-03-25 16:00:00 24.8 18 Este 41 Este 0 1011.1 -2.9 28
2019-03-25 15:00:00 24.3 19 Este 40 Este 0 1012.1 -2.8 28
2019-03-25 14:00:00 23.8 22 Este 37 Este 0 1013.1 -2.8 31
2019-03-25 13:00:00 22.7 20 Este 39 Este 0 1014 -2.5 36
2019-03-25 12:00:00 21.6 16 Nordeste 33 Este 0 1014.9 -1.1 37
2019-03-25 11:00:00 19.4 16 Este 30 Nordeste 0 1015.9 0.1 48
2019-03-25 10:00:00 15.3 8 Este 15 Nordeste 0 1016.5 0.9 65
2019-03-25 09:00:00 12.7 9 Nordeste 14 Nordeste 0 1016 0.5 68
2019-03-25 08:00:00 10.4 8 Nordeste 14 Norte 0 1015.8 0.3 75
2019-03-25 07:00:00 10.3 8 Nordeste 13 Nordeste 0 1015.6 -0.5 75
2019-03-25 06:00:00 9.2 5 Nordeste 12 Nordeste 0 1015.5 -0.9 79
2019-03-25 05:00:00 9.6 6 Nordeste 10 Nordeste 0 1015.5 -1 77
2019-03-25 04:00:00 10.8 5 Nordeste 13 Nordeste 0 1016.1 -0.7 73
2019-03-25 03:00:00 11.4 8 Nordeste 13 Norte 0 1016.4 -1 70
2019-03-25 02:00:00 12.3 6 Nordeste 9 Nordeste 0 1016.5 -1.1 67
2019-03-25 01:00:00 12.9 6 Nordeste 9 Nordeste 0 1016.8 -0.9 70
2019-03-25 00:00:00 13.6 4 Nordeste 12 Nordeste 0 1017.4 0.3 76
2019-03-24 23:00:00 14.3 8 Norte 13 Nordeste 0 1017.6 1.4 76
2019-03-24 22:00:00 16.4 5 Nordeste 12 Sudeste 0 1017.7 2 66
2019-03-24 21:00:00 17 8 Sudeste 15 Sur 0 1017.1 2 67
2019-03-24 20:00:00 18 11 Sur 18 Sur 0 1016.2 1.2 64
2019-03-24 19:00:00 19.8 11 Sudoeste 21 Sudoeste 0 1015.7 0.7 60
2019-03-24 18:00:00 21.8 14 Sudoeste 23 Sur 0 1015.1 -0.5 53
2019-03-24 17:00:00 22.7 18 Sudoeste 34 Sudeste 0 1015 -1.4 48
2019-03-24 16:00:00 23.8 16 Sudeste 25 Sudeste 0 1015 -1.8 37
2019-03-24 15:00:00 22.9 14 Este 22 Este 0 1015.6 -1.6 40
2019-03-24 14:00:00 21.7 13 Este 27 Nordeste 0 1016.4 -1.2 41
2019-03-24 13:00:00 20.8 14 Este 32 Este 0 1016.8 -0.5 43
2019-03-24 12:00:00 19.6 18 Nordeste 32 Este 0 1017.2 0.3 46
2019-03-24 11:00:00 17.6 19 Este 29 Este 0 1017.6 0.8 52
2019-03-24 10:00:00 15 11 Este 23 Nordeste 0 1017.3 0.9 63
2019-03-24 09:00:00 12.7 9 Nordeste 16 Nordeste 0 1016.9 0.8 73
2019-03-24 08:00:00 9.8 8 Nordeste 13 Nordeste 0 1016.8 0.7 80
2019-03-24 07:00:00 9.6 6 Nordeste 14 Nordeste 0 1016.4 0.3 79
2019-03-24 06:00:00 9.9 8 Nordeste 11 Nordeste 0 1016.1 -0.4 79
2019-03-24 05:00:00 10.3 4 Nordeste 17 Nordeste 0 1016.1 -0.6 78
2019-03-24 04:00:00 11.1 10 Nordeste 19 Nordeste 0 1016.1 -1 76
2019-03-24 03:00:00 10.9 9 Nordeste 15 Nordeste 0 1016.5 -0.9 73
2019-03-24 02:00:00 11 12 Nordeste 15 Nordeste 0 1016.7 -0.9 66
2019-03-24 01:00:00 11.7 6 Nordeste 10 Nordeste 0 1017.1 -0.1 62
2019-03-24 00:00:00 12.7 6 Nordeste 11 Este 0 1017.4 0.7 58
2019-03-23 23:00:00 13.4 6 Nordeste 12 Este 0 1017.6 1.5 59
2019-03-23 22:00:00 14.7 8 Este 12 Este 0 1017.2 1.1 58
2019-03-23 21:00:00 15.8 5 Este 12 Este 0 1016.7 1.1 51
2019-03-23 20:00:00 18.1 6 Este 22 Este 0 1016.1 0.7 46
2019-03-23 19:00:00 20.5 13 Este 37 Este 0 1016.1 0.4 36
2019-03-23 18:00:00 21.8 19 Este 42 Este 0 1015.6 -0.6 32
2019-03-23 17:00:00 21.8 20 Este 39 Nordeste 0 1015.4 -1.6 37
2019-03-23 16:00:00 22.4 19 Este 39 Este 0 1015.7 -2.1 36
2019-03-23 15:00:00 21.3 18 Este 40 Este 0 1016.2 -2.2 39
2019-03-23 14:00:00 21.7 21 Este 40 Este 0 1017 -1.9 39
2019-03-23 13:00:00 21.2 21 Este 36 Este 0 1017.8 -1.5 40
2019-03-23 12:00:00 20.2 19 Este 40 Este 0 1018.4 -1.1 43
2019-03-23 11:00:00 18.3 24 Este 40 Este 0 1018.9 -0.5 47
2019-03-23 10:00:00 15.5 18 Este 35 Este 0 1019.3 0.3 57
2019-03-23 09:00:00 13.2 14 Nordeste 29 Nordeste 0 1019.5 0.2 66
2019-03-23 08:00:00 11.5 14 Nordeste 28 Nordeste 0 1019.4 -0.2 70
2019-03-23 07:00:00 10.7 13 Nordeste 22 Nordeste 0 1019 -0.7 75
2019-03-23 06:00:00 9.3 6 Nordeste 14 Nordeste 0 1019.3 -1.1 77
2019-03-23 05:00:00 9.5 6 Nordeste 22 Nordeste 0 1019.6 -1 66
2019-03-23 04:00:00 9.7 7 Nordeste 14 Nordeste 0 1019.7 -1 65
2019-03-23 03:00:00 9.3 7 Nordeste 15 Nordeste 0 1020.4 -0.5 65
2019-03-23 02:00:00 9.5 9 Nordeste 14 Nordeste 0 1020.6 -0.2 58
2019-03-23 01:00:00 10.1 8 Nordeste 13 Nordeste 0 1020.7 0.4 61
2019-03-23 00:00:00 11.9 7 Nordeste 9 Norte 0 1020.9 1 59
2019-03-22 23:00:00 13.4 5 Nordeste 7 Nordeste 0 1020.8 1.5 48
2019-03-22 22:00:00 14.4 3 Nordeste 18 Sudeste 0 1020.3 1.3 46
2019-03-22 21:00:00 16.7 5 Este 15 Sudeste 0 1019.9 1.1 40
2019-03-22 20:00:00 16.8 8 Sudeste 22 Este 0 1019.3 0.1 54
2019-03-22 19:00:00 20 10 Nordeste 25 Este 0 1019 -0.7 29
2019-03-22 18:00:00 21.1 13 Este 29 Este 0 1018.8 -1.4 30
2019-03-22 17:00:00 21.2 16 Este 31 Este 0 1019.2 -1.8 30
2019-03-22 16:00:00 21.1 15 Este 30 Este 0 1019.7 -2 29
2019-03-22 15:00:00 20.6 14 Este 32 Este 0 1020.2 -1.9 28
2019-03-22 14:00:00 19.7 18 Este 32 Este 0 1021 -1.4 33
2019-03-22 13:00:00 18.9 21 Este 35 Nordeste 0 1021.7 -0.9 36
2019-03-22 12:00:00 17.9 19 Este 35 Este 0 1022.1 -0.4 43
2019-03-22 11:00:00 16.5 17 Este 33 Este 0 1022.4 0.1 51
2019-03-22 10:00:00 13.9 14 Este 24 Este 0 1022.6 0.5 64
2019-03-22 09:00:00 9.3 9 Nordeste 14 Nordeste 0 1022.5 0.5 71
2019-03-22 08:00:00 6.4 5 Norte 11 Norte 0 1022.3 0.1 80
2019-03-22 07:00:00 6.1 7 Norte 11 Norte 0 1022.1 -0.2 77
2019-03-22 06:00:00 5.7 6 Norte 11 Nordeste 0 1022 -0.4 81
2019-03-22 05:00:00 6.2 5 Nordeste 10 Norte 0 1022.2 -0.4 80
2019-03-22 04:00:00 6.2 5 Nordeste 10 Nordeste 0 1022.3 -0.3 82
2019-03-22 03:00:00 6.9 5 Nordeste 10 Nordeste 0 1022.4 -0.2 76
2019-03-22 02:00:00 7.9 7 Nordeste 12 Nordeste 0 1022.6 0.2 76
2019-03-22 01:00:00 10.3 5 Nordeste 10 Nordeste 0 1022.6 0.7 67
2019-03-22 00:00:00 11 8 Nordeste 10 Nordeste 0 1022.6 1.4 67
2019-03-21 23:00:00 12 6 Nordeste 8 Nordeste 0 1022.4 1.4 68
2019-03-21 22:00:00 12.8 6 Sur 15 Sudoeste 0 1021.9 1 67
2019-03-21 21:00:00 14 9 Sudoeste 15 Sur 0 1021.2 0.7 62
2019-03-21 20:00:00 14.9 9 Sudoeste 22 Sur 0 1021 0.3 56
2019-03-21 19:00:00 17 15 Sudoeste 29 Nordeste 0 1020.9 -0.1 46
2019-03-21 18:00:00 19.8 14 Nordeste 30 Este 0 1020.5 -0.9 23
2019-03-21 17:00:00 20.3 14 Este 28 Este 0 1020.7 -1.4 22
2019-03-21 16:00:00 20.2 18 Este 32 Este 0 1021 -1.7 24
2019-03-21 15:00:00 19.5 19 Este 40 Este 0 1021.4 -1.6 28
2019-03-21 14:00:00 19.2 22 Este 41 Este 0 1022.1 -1.2 27
2019-03-21 13:00:00 18.1 22 Este 39 Este 0 1022.7 -0.6 35
2019-03-21 12:00:00 17.4 19 Este 35 Este 0 1023 -0.3 42
2019-03-21 11:00:00 16.1 21 Este 33 Este 0 1023.3 0.3 47
2019-03-21 10:00:00 13.8 15 Este 28 Este 0 1023.3 0.7 66
2019-03-21 09:00:00 9.6 6 Nordeste 12 Nordeste 0 1023.3 1 79
2019-03-21 08:00:00 6.6 8 Nordeste 11 Nordeste 0 1023 1 88
2019-03-21 07:00:00 6.4 6 Nordeste 13 Nordeste 0 1022.6 0.5 84
2019-03-21 06:00:00 6.9 6 Nordeste 10 Nordeste 0 1022.3 -0.4 84
2019-03-21 05:00:00 7.7 6 Nordeste 8 Nordeste 0 1022 -0.8 85
2019-03-21 04:00:00 9 4 Nordeste 7 Nordeste 0 1022.1 -0.4 79
2019-03-21 03:00:00 8.9 4 Nordeste 8 Nordeste 0 1022.7 0.1 80
2019-03-21 02:00:00 8.7 5 Nordeste 13 Nordeste 0 1022.8 0.1 83
2019-03-21 01:00:00 10.6 7 Nordeste 9 Nordeste 0 1022.5 0.1 72
2019-03-21 00:00:00 11.8 5 Nordeste 6 Norte 0 1022.6 0.7 72